sensor_id;sensor_type;location;lat;lon;timestamp;P1;durP1;ratioP1;P2;durP2;ratioP2
24681;SDS011;12802;53.390;-2.328;2023-09-19T00:00:37;15.18;;;2.90;;
24681;SDS011;12802;53.390;-2.328;2023-09-19T00:03:05;11.00;;;2.63;;
24681;SDS011;12802;53.390;-2.328;2023-09-19T00:05:33;13.05;;;2.63;;
24681;SDS011;12802;53.390;-2.328;2023-09-19T00:08:00;15.88;;;2.72;;
24681;SDS011;12802;53.390;-2.328;2023-09-19T00:10:29;15.70;;;3.13;;
24681;SDS011;12802;53.390;-2.328;2023-09-19T00:13:02;14.02;;;2.78;;
24681;SDS011;12802;53.390;-2.328;2023-09-19T00:15:38;8.30;;;2.38;;
24681;SDS011;12802;53.390;-2.328;2023-09-19T00:18:06;12.00;;;3.03;;
24681;SDS011;12802;53.390;-2.328;2023-09-19T00:20:32;13.98;;;2.63;;
24681;SDS011;12802;53.390;-2.328;2023-09-19T00:23:00;14.25;;;2.70;;
24681;SDS011;12802;53.390;-2.328;2023-09-19T00:25:34;16.67;;;3.22;;
24681;SDS011;12802;53.390;-2.328;2023-09-19T00:28:00;12.40;;;3.13;;
24681;SDS011;12802;53.390;-2.328;2023-09-19T00:30:26;14.02;;;2.63;;
24681;SDS011;12802;53.390;-2.328;2023-09-19T00:32:52;12.70;;;3.03;;
24681;SDS011;12802;53.390;-2.328;2023-09-19T00:35:18;12.63;;;2.58;;
24681;SDS011;12802;53.390;-2.328;2023-09-19T00:37:44;17.30;;;3.15;;
24681;SDS011;12802;53.390;-2.328;2023-09-19T00:40:10;13.00;;;2.95;;
24681;SDS011;12802;53.390;-2.328;2023-09-19T00:42:44;19.73;;;3.03;;
24681;SDS011;12802;53.390;-2.328;2023-09-19T00:45:12;18.40;;;3.55;;
24681;SDS011;12802;53.390;-2.328;2023-09-19T00:47:43;15.63;;;3.45;;
24681;SDS011;12802;53.390;-2.328;2023-09-19T00:50:11;18.98;;;3.33;;
24681;SDS011;12802;53.390;-2.328;2023-09-19T00:52:39;17.90;;;2.90;;
24681;SDS011;12802;53.390;-2.328;2023-09-19T00:55:11;15.68;;;3.47;;
24681;SDS011;12802;53.390;-2.328;2023-09-19T00:57:39;12.20;;;3.80;;
24681;SDS011;12802;53.390;-2.328;2023-09-19T01:00:06;19.90;;;3.53;;
24681;SDS011;12802;53.390;-2.328;2023-09-19T01:02:37;20.60;;;3.28;;
24681;SDS011;12802;53.390;-2.328;2023-09-19T01:05:03;14.90;;;3.17;;
24681;SDS011;12802;53.390;-2.328;2023-09-19T01:07:31;19.60;;;3.70;;
24681;SDS011;12802;53.390;-2.328;2023-09-19T01:12:33;17.77;;;3.65;;
24681;SDS011;12802;53.390;-2.328;2023-09-19T01:15:11;17.60;;;3.58;;
24681;SDS011;12802;53.390;-2.328;2023-09-19T01:20:37;15.05;;;3.47;;
24681;SDS011;12802;53.390;-2.328;2023-09-19T01:28:53;18.40;;;3.33;;
24681;SDS011;12802;53.390;-2.328;2023-09-19T01:31:38;17.65;;;3.67;;
24681;SDS011;12802;53.390;-2.328;2023-09-19T01:34:08;15.20;;;3.50;;
24681;SDS011;12802;53.390;-2.328;2023-09-19T01:36:37;21.65;;;4.03;;
24681;SDS011;12802;53.390;-2.328;2023-09-19T01:47:49;20.33;;;4.38;;
24681;SDS011;12802;53.390;-2.328;2023-09-19T01:50:24;30.42;;;4.75;;
24681;SDS011;12802;53.390;-2.328;2023-09-19T01:53:05;19.95;;;4.38;;
24681;SDS011;12802;53.390;-2.328;2023-09-19T01:55:41;31.00;;;5.25;;
24681;SDS011;12802;53.390;-2.328;2023-09-19T01:58:33;26.35;;;5.13;;
24681;SDS011;12802;53.390;-2.328;2023-09-19T02:01:04;22.70;;;5.03;;
24681;SDS011;12802;53.390;-2.328;2023-09-19T02:03:33;27.43;;;5.40;;
24681;SDS011;12802;53.390;-2.328;2023-09-19T02:06:00;25.35;;;5.13;;
24681;SDS011;12802;53.390;-2.328;2023-09-19T02:08:26;19.88;;;4.65;;
24681;SDS011;12802;53.390;-2.328;2023-09-19T02:10:52;22.55;;;4.43;;
24681;SDS011;12802;53.390;-2.328;2023-09-19T02:13:18;21.80;;;4.85;;
24681;SDS011;12802;53.390;-2.328;2023-09-19T02:15:46;26.15;;;5.25;;
24681;SDS011;12802;53.390;-2.328;2023-09-19T02:18:12;19.02;;;5.18;;
24681;SDS011;12802;53.390;-2.328;2023-09-19T02:20:39;23.58;;;4.47;;
24681;SDS011;12802;53.390;-2.328;2023-09-19T02:23:05;22.95;;;4.50;;
24681;SDS011;12802;53.390;-2.328;2023-09-19T02:25:31;23.33;;;5.15;;
24681;SDS011;12802;53.390;-2.328;2023-09-19T02:27:57;24.92;;;5.03;;
24681;SDS011;12802;53.390;-2.328;2023-09-19T02:30:28;25.02;;;5.53;;
24681;SDS011;12802;53.390;-2.328;2023-09-19T02:32:55;28.45;;;5.50;;
24681;SDS011;12802;53.390;-2.328;2023-09-19T02:35:21;25.15;;;4.70;;
24681;SDS011;12802;53.390;-2.328;2023-09-19T02:37:47;18.70;;;4.43;;
24681;SDS011;12802;53.390;-2.328;2023-09-19T02:40:13;25.45;;;5.13;;
24681;SDS011;12802;53.390;-2.328;2023-09-19T02:42:47;22.33;;;5.07;;
24681;SDS011;12802;53.390;-2.328;2023-09-19T02:45:18;21.95;;;4.70;;
24681;SDS011;12802;53.390;-2.328;2023-09-19T02:47:45;25.77;;;5.05;;
24681;SDS011;12802;53.390;-2.328;2023-09-19T02:50:11;24.48;;;4.95;;
24681;SDS011;12802;53.390;-2.328;2023-09-19T02:52:41;22.40;;;5.28;;
24681;SDS011;12802;53.390;-2.328;2023-09-19T02:55:12;26.40;;;4.97;;
24681;SDS011;12802;53.390;-2.328;2023-09-19T02:57:39;27.67;;;5.15;;
24681;SDS011;12802;53.390;-2.328;2023-09-19T03:00:08;26.50;;;5.60;;
24681;SDS011;12802;53.390;-2.328;2023-09-19T03:02:37;26.63;;;5.40;;
24681;SDS011;12802;53.390;-2.328;2023-09-19T03:05:07;25.58;;;5.32;;
24681;SDS011;12802;53.390;-2.328;2023-09-19T03:07:36;22.77;;;5.68;;
24681;SDS011;12802;53.390;-2.328;2023-09-19T03:10:04;22.80;;;4.95;;
24681;SDS011;12802;53.390;-2.328;2023-09-19T03:14:59;26.05;;;4.82;;
24681;SDS011;12802;53.390;-2.328;2023-09-19T03:17:25;31.45;;;5.20;;
24681;SDS011;12802;53.390;-2.328;2023-09-19T03:19:51;26.65;;;5.65;;
24681;SDS011;12802;53.390;-2.328;2023-09-19T03:22:16;33.67;;;5.60;;
24681;SDS011;12802;53.390;-2.328;2023-09-19T03:24:43;24.50;;;5.32;;
24681;SDS011;12802;53.390;-2.328;2023-09-19T03:27:10;25.90;;;5.75;;
24681;SDS011;12802;53.390;-2.328;2023-09-19T03:29:36;24.38;;;5.45;;
24681;SDS011;12802;53.390;-2.328;2023-09-19T03:32:03;30.48;;;4.93;;
24681;SDS011;12802;53.390;-2.328;2023-09-19T03:34:29;29.13;;;5.28;;
24681;SDS011;12802;53.390;-2.328;2023-09-19T03:36:56;23.95;;;5.10;;
24681;SDS011;12802;53.390;-2.328;2023-09-19T03:39:22;22.92;;;4.95;;
24681;SDS011;12802;53.390;-2.328;2023-09-19T03:41:48;23.45;;;5.05;;
24681;SDS011;12802;53.390;-2.328;2023-09-19T03:44:14;26.77;;;5.07;;
24681;SDS011;12802;53.390;-2.328;2023-09-19T03:46:40;21.70;;;4.80;;
24681;SDS011;12802;53.390;-2.328;2023-09-19T03:49:06;20.80;;;5.13;;
24681;SDS011;12802;53.390;-2.328;2023-09-19T03:51:33;23.45;;;5.05;;
24681;SDS011;12802;53.390;-2.328;2023-09-19T03:53:59;25.05;;;5.07;;
24681;SDS011;12802;53.390;-2.328;2023-09-19T03:56:25;29.50;;;5.55;;
24681;SDS011;12802;53.390;-2.328;2023-09-19T03:58:51;26.30;;;4.72;;
24681;SDS011;12802;53.390;-2.328;2023-09-19T04:01:17;23.88;;;5.30;;
24681;SDS011;12802;53.390;-2.328;2023-09-19T04:03:43;22.48;;;4.78;;
24681;SDS011;12802;53.390;-2.328;2023-09-19T04:06:16;22.88;;;5.57;;
24681;SDS011;12802;53.390;-2.328;2023-09-19T04:08:43;24.92;;;5.68;;
24681;SDS011;12802;53.390;-2.328;2023-09-19T04:11:10;26.80;;;4.95;;
24681;SDS011;12802;53.390;-2.328;2023-09-19T04:13:36;26.67;;;4.90;;
24681;SDS011;12802;53.390;-2.328;2023-09-19T04:16:02;32.35;;;5.65;;
24681;SDS011;12802;53.390;-2.328;2023-09-19T04:18:35;26.45;;;5.10;;
24681;SDS011;12802;53.390;-2.328;2023-09-19T04:21:04;25.90;;;5.00;;
24681;SDS011;12802;53.390;-2.328;2023-09-19T04:23:31;31.13;;;5.47;;
24681;SDS011;12802;53.390;-2.328;2023-09-19T04:25:58;22.35;;;5.05;;
24681;SDS011;12802;53.390;-2.328;2023-09-19T04:28:23;28.52;;;5.45;;
24681;SDS011;12802;53.390;-2.328;2023-09-19T04:30:50;26.55;;;5.63;;
24681;SDS011;12802;53.390;-2.328;2023-09-19T04:33:15;30.27;;;5.57;;
24681;SDS011;12802;53.390;-2.328;2023-09-19T04:35:41;31.20;;;5.95;;
24681;SDS011;12802;53.390;-2.328;2023-09-19T04:38:10;22.27;;;4.90;;
24681;SDS011;12802;53.390;-2.328;2023-09-19T04:40:36;30.67;;;5.53;;
24681;SDS011;12802;53.390;-2.328;2023-09-19T04:43:04;29.38;;;5.32;;
24681;SDS011;12802;53.390;-2.328;2023-09-19T04:45:31;28.52;;;6.07;;
24681;SDS011;12802;53.390;-2.328;2023-09-19T04:47:56;27.98;;;6.00;;
24681;SDS011;12802;53.390;-2.328;2023-09-19T04:50:22;32.55;;;5.25;;
24681;SDS011;12802;53.390;-2.328;2023-09-19T04:52:49;24.08;;;5.30;;
24681;SDS011;12802;53.390;-2.328;2023-09-19T04:55:16;24.38;;;5.50;;
24681;SDS011;12802;53.390;-2.328;2023-09-19T05:00:11;28.00;;;4.80;;
24681;SDS011;12802;53.390;-2.328;2023-09-19T05:02:40;22.95;;;4.82;;
24681;SDS011;12802;53.390;-2.328;2023-09-19T05:05:07;28.67;;;5.95;;
24681;SDS011;12802;53.390;-2.328;2023-09-19T05:07:34;20.00;;;4.75;;
24681;SDS011;12802;53.390;-2.328;2023-09-19T05:10:00;28.55;;;6.18;;
24681;SDS011;12802;53.390;-2.328;2023-09-19T05:12:26;28.73;;;5.57;;
24681;SDS011;12802;53.390;-2.328;2023-09-19T05:14:52;25.20;;;5.43;;
24681;SDS011;12802;53.390;-2.328;2023-09-19T05:17:18;22.17;;;5.10;;
24681;SDS011;12802;53.390;-2.328;2023-09-19T05:19:44;24.38;;;4.97;;
24681;SDS011;12802;53.390;-2.328;2023-09-19T05:22:11;26.33;;;5.43;;
24681;SDS011;12802;53.390;-2.328;2023-09-19T05:24:37;27.98;;;4.82;;
24681;SDS011;12802;53.390;-2.328;2023-09-19T05:27:04;20.73;;;4.90;;
24681;SDS011;12802;53.390;-2.328;2023-09-19T05:29:32;27.23;;;5.05;;
24681;SDS011;12802;53.390;-2.328;2023-09-19T05:31:58;28.50;;;5.47;;
24681;SDS011;12802;53.390;-2.328;2023-09-19T05:34:24;22.30;;;4.82;;
24681;SDS011;12802;53.390;-2.328;2023-09-19T05:36:54;25.45;;;4.88;;
24681;SDS011;12802;53.390;-2.328;2023-09-19T05:39:20;27.58;;;5.03;;
24681;SDS011;12802;53.390;-2.328;2023-09-19T05:41:46;25.98;;;4.68;;
24681;SDS011;12802;53.390;-2.328;2023-09-19T05:44:12;27.80;;;5.13;;
24681;SDS011;12802;53.390;-2.328;2023-09-19T05:46:39;25.05;;;4.97;;
24681;SDS011;12802;53.390;-2.328;2023-09-19T05:49:05;22.50;;;4.82;;
24681;SDS011;12802;53.390;-2.328;2023-09-19T05:51:31;23.73;;;5.03;;
24681;SDS011;12802;53.390;-2.328;2023-09-19T05:53:56;24.30;;;5.53;;
24681;SDS011;12802;53.390;-2.328;2023-09-19T05:56:23;28.75;;;5.45;;
24681;SDS011;12802;53.390;-2.328;2023-09-19T05:58:48;30.33;;;5.78;;
24681;SDS011;12802;53.390;-2.328;2023-09-19T06:01:17;22.63;;;5.85;;
24681;SDS011;12802;53.390;-2.328;2023-09-19T06:03:43;26.25;;;5.55;;
24681;SDS011;12802;53.390;-2.328;2023-09-19T06:06:08;28.75;;;5.57;;
24681;SDS011;12802;53.390;-2.328;2023-09-19T06:08:34;28.10;;;5.10;;
24681;SDS011;12802;53.390;-2.328;2023-09-19T06:11:00;24.35;;;5.25;;
24681;SDS011;12802;53.390;-2.328;2023-09-19T06:13:29;16.15;;;4.65;;
24681;SDS011;12802;53.390;-2.328;2023-09-19T06:15:55;37.83;;;5.75;;
24681;SDS011;12802;53.390;-2.328;2023-09-19T06:20:51;26.60;;;5.13;;
24681;SDS011;12802;53.390;-2.328;2023-09-19T06:23:17;19.13;;;4.93;;
24681;SDS011;12802;53.390;-2.328;2023-09-19T06:25:45;23.25;;;5.72;;
24681;SDS011;12802;53.390;-2.328;2023-09-19T06:28:10;18.10;;;5.38;;
24681;SDS011;12802;53.390;-2.328;2023-09-19T06:30:39;23.57;;;4.93;;
24681;SDS011;12802;53.390;-2.328;2023-09-19T06:33:05;16.20;;;4.53;;
24681;SDS011;12802;53.390;-2.328;2023-09-19T06:35:34;15.15;;;4.40;;
24681;SDS011;12802;53.390;-2.328;2023-09-19T06:38:03;23.42;;;5.20;;
24681;SDS011;12802;53.390;-2.328;2023-09-19T06:40:30;19.85;;;4.80;;
24681;SDS011;12802;53.390;-2.328;2023-09-19T06:42:56;18.88;;;4.90;;
24681;SDS011;12802;53.390;-2.328;2023-09-19T06:45:22;16.60;;;5.13;;
24681;SDS011;12802;53.390;-2.328;2023-09-19T06:47:51;23.00;;;4.65;;
24681;SDS011;12802;53.390;-2.328;2023-09-19T06:50:19;17.45;;;4.60;;
24681;SDS011;12802;53.390;-2.328;2023-09-19T06:52:48;16.92;;;4.93;;
24681;SDS011;12802;53.390;-2.328;2023-09-19T06:55:16;17.23;;;4.70;;
24681;SDS011;12802;53.390;-2.328;2023-09-19T06:57:48;17.73;;;4.88;;
24681;SDS011;12802;53.390;-2.328;2023-09-19T07:00:14;23.35;;;4.70;;
24681;SDS011;12802;53.390;-2.328;2023-09-19T07:05:31;16.92;;;5.18;;
24681;SDS011;12802;53.390;-2.328;2023-09-19T07:07:57;21.67;;;4.50;;
24681;SDS011;12802;53.390;-2.328;2023-09-19T07:10:25;18.33;;;5.93;;
24681;SDS011;12802;53.390;-2.328;2023-09-19T07:13:02;18.50;;;5.22;;
24681;SDS011;12802;53.390;-2.328;2023-09-19T07:15:30;21.45;;;6.13;;
24681;SDS011;12802;53.390;-2.328;2023-09-19T07:18:01;27.08;;;6.18;;
24681;SDS011;12802;53.390;-2.328;2023-09-19T07:20:27;26.00;;;5.47;;
24681;SDS011;12802;53.390;-2.328;2023-09-19T07:22:57;24.65;;;6.03;;
24681;SDS011;12802;53.390;-2.328;2023-09-19T07:25:25;28.95;;;6.03;;
24681;SDS011;12802;53.390;-2.328;2023-09-19T07:27:51;17.10;;;5.90;;
24681;SDS011;12802;53.390;-2.328;2023-09-19T07:30:16;16.85;;;5.28;;
24681;SDS011;12802;53.390;-2.328;2023-09-19T07:32:42;18.77;;;6.13;;
24681;SDS011;12802;53.390;-2.328;2023-09-19T07:35:08;18.52;;;5.75;;
24681;SDS011;12802;53.390;-2.328;2023-09-19T07:37:34;23.42;;;6.35;;
24681;SDS011;12802;53.390;-2.328;2023-09-19T07:40:04;17.13;;;6.32;;
24681;SDS011;12802;53.390;-2.328;2023-09-19T07:42:37;16.95;;;6.00;;
24681;SDS011;12802;53.390;-2.328;2023-09-19T07:45:06;14.90;;;5.78;;
24681;SDS011;12802;53.390;-2.328;2023-09-19T07:47:33;16.13;;;5.72;;
24681;SDS011;12802;53.390;-2.328;2023-09-19T07:49:59;16.42;;;5.18;;
24681;SDS011;12802;53.390;-2.328;2023-09-19T07:52:27;13.57;;;4.78;;
24681;SDS011;12802;53.390;-2.328;2023-09-19T07:54:54;14.45;;;5.38;;
24681;SDS011;12802;53.390;-2.328;2023-09-19T07:57:20;13.00;;;4.50;;
24681;SDS011;12802;53.390;-2.328;2023-09-19T07:59:46;16.55;;;4.40;;
24681;SDS011;12802;53.390;-2.328;2023-09-19T08:02:11;8.50;;;3.70;;
24681;SDS011;12802;53.390;-2.328;2023-09-19T08:04:42;16.17;;;3.70;;
24681;SDS011;12802;53.390;-2.328;2023-09-19T08:07:08;9.48;;;3.22;;
24681;SDS011;12802;53.390;-2.328;2023-09-19T08:09:34;13.50;;;3.13;;
24681;SDS011;12802;53.390;-2.328;2023-09-19T08:11:59;8.32;;;3.05;;
24681;SDS011;12802;53.390;-2.328;2023-09-19T08:14:30;6.35;;;2.45;;
24681;SDS011;12802;53.390;-2.328;2023-09-19T08:16:56;5.55;;;2.30;;
24681;SDS011;12802;53.390;-2.328;2023-09-19T08:19:23;8.13;;;2.25;;
24681;SDS011;12802;53.390;-2.328;2023-09-19T08:24:27;7.03;;;2.40;;
24681;SDS011;12802;53.390;-2.328;2023-09-19T08:26:54;5.57;;;1.85;;
24681;SDS011;12802;53.390;-2.328;2023-09-19T08:29:21;7.32;;;1.48;;
24681;SDS011;12802;53.390;-2.328;2023-09-19T08:31:56;4.63;;;1.45;;
24681;SDS011;12802;53.390;-2.328;2023-09-19T08:36:49;6.15;;;1.40;;
24681;SDS011;12802;53.390;-2.328;2023-09-19T08:39:25;3.08;;;1.20;;
24681;SDS011;12802;53.390;-2.328;2023-09-19T08:42:00;7.30;;;1.27;;
24681;SDS011;12802;53.390;-2.328;2023-09-19T08:44:27;3.42;;;1.05;;
24681;SDS011;12802;53.390;-2.328;2023-09-19T08:46:55;5.97;;;1.33;;
24681;SDS011;12802;53.390;-2.328;2023-09-19T08:49:58;2.53;;;0.70;;
24681;SDS011;12802;53.390;-2.328;2023-09-19T08:52:27;3.22;;;0.65;;
24681;SDS011;12802;53.390;-2.328;2023-09-19T08:54:59;1.60;;;0.50;;
24681;SDS011;12802;53.390;-2.328;2023-09-19T08:57:29;1.00;;;0.60;;
24681;SDS011;12802;53.390;-2.328;2023-09-19T09:00:00;1.17;;;0.50;;
24681;SDS011;12802;53.390;-2.328;2023-09-19T09:04:59;3.10;;;0.57;;
24681;SDS011;12802;53.390;-2.328;2023-09-19T09:07:25;3.08;;;0.50;;
24681;SDS011;12802;53.390;-2.328;2023-09-19T09:09:53;1.67;;;0.30;;
24681;SDS011;12802;53.390;-2.328;2023-09-19T09:12:19;3.03;;;0.40;;
24681;SDS011;12802;53.390;-2.328;2023-09-19T09:14:46;1.58;;;0.40;;
24681;SDS011;12802;53.390;-2.328;2023-09-19T09:17:13;0.93;;;0.22;;
24681;SDS011;12802;53.390;-2.328;2023-09-19T09:19:40;1.77;;;0.30;;
24681;SDS011;12802;53.390;-2.328;2023-09-19T09:22:09;0.50;;;0.10;;
24681;SDS011;12802;53.390;-2.328;2023-09-19T09:24:36;1.77;;;0.28;;
24681;SDS011;12802;53.390;-2.328;2023-09-19T09:27:15;1.33;;;0.20;;
24681;SDS011;12802;53.390;-2.328;2023-09-19T09:29:46;1.77;;;0.28;;
24681;SDS011;12802;53.390;-2.328;2023-09-19T09:32:25;1.77;;;0.20;;
24681;SDS011;12802;53.390;-2.328;2023-09-19T09:34:57;1.33;;;0.28;;
24681;SDS011;12802;53.390;-2.328;2023-09-19T09:37:25;2.13;;;0.20;;
24681;SDS011;12802;53.390;-2.328;2023-09-19T09:39:59;0.50;;;0.20;;
24681;SDS011;12802;53.390;-2.328;2023-09-19T09:42:41;0.73;;;0.20;;
24681;SDS011;12802;53.390;-2.328;2023-09-19T09:45:16;4.65;;;0.38;;
24681;SDS011;12802;53.390;-2.328;2023-09-19T09:47:59;1.48;;;0.10;;
24681;SDS011;12802;53.390;-2.328;2023-09-19T09:50:35;1.27;;;0.30;;
24681;SDS011;12802;53.390;-2.328;2023-09-19T09:53:26;2.95;;;0.22;;
24681;SDS011;12802;53.390;-2.328;2023-09-19T09:55:58;2.53;;;0.10;;
24681;SDS011;12802;53.390;-2.328;2023-09-19T09:58:34;0.55;;;0.20;;
24681;SDS011;12802;53.390;-2.328;2023-09-19T10:01:14;2.97;;;0.20;;
24681;SDS011;12802;53.390;-2.328;2023-09-19T10:03:41;0.47;;;0.20;;
24681;SDS011;12802;53.390;-2.328;2023-09-19T10:06:14;1.58;;;0.17;;
24681;SDS011;12802;53.390;-2.328;2023-09-19T10:09:05;0.47;;;0.20;;
24681;SDS011;12802;53.390;-2.328;2023-09-19T10:11:45;2.25;;;0.20;;
24681;SDS011;12802;53.390;-2.328;2023-09-19T10:14:17;6.25;;;0.30;;
24681;SDS011;12802;53.390;-2.328;2023-09-19T10:16:49;1.40;;;0.20;;
24681;SDS011;12802;53.390;-2.328;2023-09-19T10:19:16;0.88;;;0.13;;
24681;SDS011;12802;53.390;-2.328;2023-09-19T10:21:55;0.55;;;0.10;;
24681;SDS011;12802;53.390;-2.328;2023-09-19T10:24:23;1.63;;;0.20;;
24681;SDS011;12802;53.390;-2.328;2023-09-19T10:26:51;1.63;;;0.25;;
24681;SDS011;12802;53.390;-2.328;2023-09-19T10:29:20;2.72;;;0.35;;
24681;SDS011;12802;53.390;-2.328;2023-09-19T10:31:47;1.30;;;0.40;;
24681;SDS011;12802;53.390;-2.328;2023-09-19T10:34:15;1.35;;;0.50;;
24681;SDS011;12802;53.390;-2.328;2023-09-19T10:36:45;0.88;;;0.38;;
24681;SDS011;12802;53.390;-2.328;2023-09-19T10:39:15;1.90;;;0.40;;
24681;SDS011;12802;53.390;-2.328;2023-09-19T10:41:50;1.92;;;0.52;;
24681;SDS011;12802;53.390;-2.328;2023-09-19T10:44:23;2.00;;;0.60;;
24681;SDS011;12802;53.390;-2.328;2023-09-19T10:46:50;1.45;;;0.40;;
24681;SDS011;12802;53.390;-2.328;2023-09-19T10:49:18;4.30;;;0.50;;
24681;SDS011;12802;53.390;-2.328;2023-09-19T10:51:45;4.35;;;0.70;;
24681;SDS011;12802;53.390;-2.328;2023-09-19T10:56:44;1.60;;;0.50;;
24681;SDS011;12802;53.390;-2.328;2023-09-19T10:59:18;2.67;;;0.60;;
24681;SDS011;12802;53.390;-2.328;2023-09-19T11:01:53;3.95;;;0.38;;
24681;SDS011;12802;53.390;-2.328;2023-09-19T11:04:27;2.70;;;0.50;;
24681;SDS011;12802;53.390;-2.328;2023-09-19T11:09:52;2.17;;;0.50;;
24681;SDS011;12802;53.390;-2.328;2023-09-19T11:14:54;4.22;;;0.65;;
24681;SDS011;12802;53.390;-2.328;2023-09-19T11:30:32;4.28;;;2.53;;
24681;SDS011;12802;53.390;-2.328;2023-09-19T11:43:47;6.75;;;0.60;;
24681;SDS011;12802;53.390;-2.328;2023-09-19T11:46:15;3.17;;;0.70;;
24681;SDS011;12802;53.390;-2.328;2023-09-19T11:48:50;7.47;;;1.35;;
24681;SDS011;12802;53.390;-2.328;2023-09-19T11:51:17;7.63;;;5.85;;
24681;SDS011;12802;53.390;-2.328;2023-09-19T11:53:47;24.05;;;20.92;;
24681;SDS011;12802;53.390;-2.328;2023-09-19T11:56:17;14.25;;;12.70;;
24681;SDS011;12802;53.390;-2.328;2023-09-19T11:58:50;22.52;;;16.42;;
24681;SDS011;12802;53.390;-2.328;2023-09-19T12:01:32;14.07;;;11.88;;
24681;SDS011;12802;53.390;-2.328;2023-09-19T12:04:00;8.50;;;4.88;;
24681;SDS011;12802;53.390;-2.328;2023-09-19T12:06:29;31.08;;;28.15;;
24681;SDS011;12802;53.390;-2.328;2023-09-19T12:08:57;4.13;;;2.10;;
24681;SDS011;12802;53.390;-2.328;2023-09-19T12:11:27;2.50;;;0.80;;
24681;SDS011;12802;53.390;-2.328;2023-09-19T12:13:55;5.70;;;1.73;;
24681;SDS011;12802;53.390;-2.328;2023-09-19T12:16:23;3.83;;;1.40;;
24681;SDS011;12802;53.390;-2.328;2023-09-19T12:18:50;4.47;;;2.30;;
24681;SDS011;12802;53.390;-2.328;2023-09-19T12:21:31;6.22;;;1.20;;
24681;SDS011;12802;53.390;-2.328;2023-09-19T12:23:58;4.00;;;0.80;;
24681;SDS011;12802;53.390;-2.328;2023-09-19T12:26:29;4.20;;;0.77;;
24681;SDS011;12802;53.390;-2.328;2023-09-19T12:29:02;2.45;;;0.68;;
24681;SDS011;12802;53.390;-2.328;2023-09-19T12:31:30;4.25;;;0.40;;
24681;SDS011;12802;53.390;-2.328;2023-09-19T12:34:01;2.70;;;0.73;;
24681;SDS011;12802;53.390;-2.328;2023-09-19T12:36:27;6.03;;;1.33;;
24681;SDS011;12802;53.390;-2.328;2023-09-19T12:38:57;3.72;;;1.05;;
24681;SDS011;12802;53.390;-2.328;2023-09-19T12:41:26;2.40;;;0.65;;
24681;SDS011;12802;53.390;-2.328;2023-09-19T12:43:52;2.95;;;0.93;;
24681;SDS011;12802;53.390;-2.328;2023-09-19T12:46:20;3.13;;;0.80;;
24681;SDS011;12802;53.390;-2.328;2023-09-19T12:49:14;2.45;;;0.77;;
24681;SDS011;12802;53.390;-2.328;2023-09-19T12:51:45;4.40;;;0.65;;
24681;SDS011;12802;53.390;-2.328;2023-09-19T12:54:12;3.30;;;0.80;;
24681;SDS011;12802;53.390;-2.328;2023-09-19T12:56:45;2.13;;;0.80;;
24681;SDS011;12802;53.390;-2.328;2023-09-19T12:59:14;3.63;;;0.82;;
24681;SDS011;12802;53.390;-2.328;2023-09-19T13:01:40;4.57;;;1.00;;
24681;SDS011;12802;53.390;-2.328;2023-09-19T13:04:19;3.22;;;0.80;;
24681;SDS011;12802;53.390;-2.328;2023-09-19T13:06:51;7.20;;;0.82;;
24681;SDS011;12802;53.390;-2.328;2023-09-19T13:09:18;5.38;;;1.00;;
24681;SDS011;12802;53.390;-2.328;2023-09-19T13:11:53;3.75;;;0.80;;
24681;SDS011;12802;53.390;-2.328;2023-09-19T13:19:47;6.97;;;1.10;;
24681;SDS011;12802;53.390;-2.328;2023-09-19T13:25:14;4.90;;;1.10;;
24681;SDS011;12802;53.390;-2.328;2023-09-19T13:27:52;4.85;;;1.38;;
24681;SDS011;12802;53.390;-2.328;2023-09-19T13:30:21;7.65;;;1.20;;
24681;SDS011;12802;53.390;-2.328;2023-09-19T13:32:51;5.07;;;1.15;;
24681;SDS011;12802;53.390;-2.328;2023-09-19T13:35:18;5.97;;;1.30;;
24681;SDS011;12802;53.390;-2.328;2023-09-19T13:37:46;3.78;;;1.20;;
24681;SDS011;12802;53.390;-2.328;2023-09-19T13:40:14;4.80;;;1.20;;
24681;SDS011;12802;53.390;-2.328;2023-09-19T13:42:40;3.15;;;0.90;;
24681;SDS011;12802;53.390;-2.328;2023-09-19T13:45:07;4.45;;;1.00;;
24681;SDS011;12802;53.390;-2.328;2023-09-19T13:50:03;2.35;;;0.60;;
24681;SDS011;12802;53.390;-2.328;2023-09-19T13:52:32;3.67;;;0.70;;
24681;SDS011;12802;53.390;-2.328;2023-09-19T13:54:58;5.50;;;0.70;;
24681;SDS011;12802;53.390;-2.328;2023-09-19T13:57:24;4.18;;;0.70;;
24681;SDS011;12802;53.390;-2.328;2023-09-19T13:59:51;5.93;;;0.95;;
24681;SDS011;12802;53.390;-2.328;2023-09-19T14:02:20;5.28;;;0.88;;
24681;SDS011;12802;53.390;-2.328;2023-09-19T14:04:48;6.28;;;0.80;;
24681;SDS011;12802;53.390;-2.328;2023-09-19T14:07:14;6.25;;;0.85;;
24681;SDS011;12802;53.390;-2.328;2023-09-19T14:09:42;8.55;;;1.90;;
24681;SDS011;12802;53.390;-2.328;2023-09-19T14:12:08;8.43;;;2.15;;
24681;SDS011;12802;53.390;-2.328;2023-09-19T14:14:34;15.07;;;2.80;;
24681;SDS011;12802;53.390;-2.328;2023-09-19T14:17:00;16.05;;;2.80;;
24681;SDS011;12802;53.390;-2.328;2023-09-19T14:19:29;17.67;;;2.97;;
24681;SDS011;12802;53.390;-2.328;2023-09-19T14:21:55;19.98;;;4.57;;
24681;SDS011;12802;53.390;-2.328;2023-09-19T14:24:21;18.67;;;3.67;;
24681;SDS011;12802;53.390;-2.328;2023-09-19T14:26:48;15.43;;;4.13;;
24681;SDS011;12802;53.390;-2.328;2023-09-19T14:29:14;27.10;;;5.22;;
24681;SDS011;12802;53.390;-2.328;2023-09-19T14:31:41;29.27;;;5.68;;
24681;SDS011;12802;53.390;-2.328;2023-09-19T14:34:07;21.63;;;5.50;;
24681;SDS011;12802;53.390;-2.328;2023-09-19T14:36:35;28.00;;;6.20;;
24681;SDS011;12802;53.390;-2.328;2023-09-19T14:39:01;27.08;;;6.38;;
24681;SDS011;12802;53.390;-2.328;2023-09-19T14:41:27;25.67;;;5.88;;
24681;SDS011;12802;53.390;-2.328;2023-09-19T14:43:54;22.55;;;5.60;;
24681;SDS011;12802;53.390;-2.328;2023-09-19T14:46:23;20.10;;;5.57;;
24681;SDS011;12802;53.390;-2.328;2023-09-19T14:48:52;30.98;;;6.40;;
24681;SDS011;12802;53.390;-2.328;2023-09-19T14:51:17;25.42;;;5.78;;
24681;SDS011;12802;53.390;-2.328;2023-09-19T14:53:44;24.95;;;5.82;;
24681;SDS011;12802;53.390;-2.328;2023-09-19T14:56:11;24.98;;;5.28;;
24681;SDS011;12802;53.390;-2.328;2023-09-19T14:58:38;29.25;;;6.22;;
24681;SDS011;12802;53.390;-2.328;2023-09-19T15:01:05;24.33;;;5.70;;
24681;SDS011;12802;53.390;-2.328;2023-09-19T15:03:35;22.65;;;5.55;;
24681;SDS011;12802;53.390;-2.328;2023-09-19T15:06:05;29.75;;;5.93;;
24681;SDS011;12802;53.390;-2.328;2023-09-19T15:08:34;32.97;;;6.03;;
24681;SDS011;12802;53.390;-2.328;2023-09-19T15:11:06;26.30;;;6.18;;
24681;SDS011;12802;53.390;-2.328;2023-09-19T15:13:32;25.90;;;6.00;;
24681;SDS011;12802;53.390;-2.328;2023-09-19T15:16:00;23.88;;;5.60;;
24681;SDS011;12802;53.390;-2.328;2023-09-19T15:18:29;24.00;;;4.80;;
24681;SDS011;12802;53.390;-2.328;2023-09-19T15:20:56;27.77;;;5.50;;
24681;SDS011;12802;53.390;-2.328;2023-09-19T15:23:22;27.00;;;5.82;;
24681;SDS011;12802;53.390;-2.328;2023-09-19T15:25:48;24.25;;;5.38;;
24681;SDS011;12802;53.390;-2.328;2023-09-19T15:28:14;25.90;;;6.32;;
24681;SDS011;12802;53.390;-2.328;2023-09-19T15:30:40;22.60;;;4.95;;
24681;SDS011;12802;53.390;-2.328;2023-09-19T15:33:06;27.05;;;5.82;;
24681;SDS011;12802;53.390;-2.328;2023-09-19T15:35:32;30.02;;;6.30;;
24681;SDS011;12802;53.390;-2.328;2023-09-19T15:37:58;25.05;;;6.38;;
24681;SDS011;12802;53.390;-2.328;2023-09-19T15:40:25;25.60;;;5.90;;
24681;SDS011;12802;53.390;-2.328;2023-09-19T15:42:52;28.85;;;5.63;;
24681;SDS011;12802;53.390;-2.328;2023-09-19T15:45:19;27.80;;;5.22;;
24681;SDS011;12802;53.390;-2.328;2023-09-19T15:47:45;22.50;;;5.28;;
24681;SDS011;12802;53.390;-2.328;2023-09-19T15:50:11;28.38;;;5.43;;
24681;SDS011;12802;53.390;-2.328;2023-09-19T15:52:40;19.52;;;5.18;;
24681;SDS011;12802;53.390;-2.328;2023-09-19T15:55:07;25.98;;;6.80;;